Time;durP1;ratioP1;P1;durP2;ratioP2;P2;SDS_P1;SDS_P2;PMS_P1;PMS_P2;Temp;Humidity;BMP_temperature;BMP_pressure;BME280_temperature;BME280_humidity;BME280_pressure;Samples;Min_cycle;Max_cycle;Signal;HPM_P1;HPM_P2
2022/11/29 00:01:22;;;;;;;27.43;16.60;;;4.80;99.90;;;;;;5025440;28;20239;-60
2022/11/29 00:03:49;;;;;;;26.43;15.60;;;4.80;99.90;;;;;;5002858;28;20936;-60
2022/11/29 00:06:19;;;;;;;24.87;16.13;;;4.80;99.90;;;;;;5009029;28;20223;-59
2022/11/29 00:08:47;;;;;;;31.87;17.73;;;4.80;99.90;;;;;;5021054;28;20204;-59
2022/11/29 00:12:10;;;;;;;27.20;15.97;;;4.80;99.90;;;;;;5017928;28;20679;-59
2022/11/29 00:14:07;;;;;;;30.20;16.47;;;4.80;99.90;;;;;;5016228;28;20216;-59
2022/11/29 00:16:34;;;;;;;30.13;16.50;;;4.80;99.90;;;;;;5017398;28;20700;-57
2022/11/29 00:19:02;;;;;;;24.70;16.37;;;4.80;99.90;;;;;;5000025;28;20209;-56
2022/11/29 00:21:29;;;;;;;26.57;16.17;;;4.80;99.90;;;;;;5023671;28;20199;-58
2022/11/29 00:23:56;;;;;;;31.07;18.40;;;4.70;99.90;;;;;;5013399;28;20938;-58
2022/11/29 00:26:24;;;;;;;30.93;16.80;;;4.70;99.90;;;;;;5023717;28;20230;-58
2022/11/29 00:28:51;;;;;;;39.87;18.90;;;4.70;99.90;;;;;;5004590;28;20931;-58
2022/11/29 00:31:20;;;;;;;31.83;18.03;;;4.70;99.90;;;;;;5023249;28;20211;-58
2022/11/29 00:33:48;;;;;;;32.40;17.87;;;4.70;99.90;;;;;;4997863;28;20751;-58
2022/11/29 00:36:15;;;;;;;33.23;17.17;;;4.80;99.90;;;;;;5023381;28;20216;-58
2022/11/29 00:38:42;;;;;;;29.03;17.40;;;4.70;99.90;;;;;;5013991;28;20682;-58
2022/11/29 00:41:10;;;;;;;35.30;18.80;;;4.70;99.90;;;;;;5023910;28;20696;-58
2022/11/29 00:43:38;;;;;;;32.00;18.47;;;4.70;99.90;;;;;;5006431;28;20224;-59
2022/11/29 00:46:06;;;;;;;32.87;18.40;;;4.70;99.90;;;;;;5008994;28;20211;-58
2022/11/29 00:48:33;;;;;;;35.07;19.17;;;4.70;99.90;;;;;;5017238;28;20204;-60
2022/11/29 00:51:00;;;;;;;32.10;17.40;;;4.70;99.90;;;;;;5012807;28;20203;-59
2022/11/29 00:53:27;;;;;;;33.90;19.07;;;4.70;99.90;;;;;;5015796;28;20208;-61
2022/11/29 00:55:54;;;;;;;31.50;17.83;;;4.70;99.90;;;;;;5018925;28;20834;-59
2022/11/29 00:58:22;;;;;;;30.93;18.80;;;4.70;99.90;;;;;;5023963;28;20953;-59
2022/11/29 01:00:50;;;;;;;27.33;17.33;;;4.70;99.90;;;;;;5001835;28;20802;-59
2022/11/29 01:03:17;;;;;;;35.63;19.40;;;4.70;99.90;;;;;;5023667;28;20286;-59
2022/11/29 01:05:45;;;;;;;36.30;18.50;;;4.70;99.90;;;;;;4999110;28;20220;-59
2022/11/29 01:08:13;;;;;;;36.63;18.50;;;4.70;99.90;;;;;;5023509;28;20204;-59
2022/11/29 01:10:41;;;;;;;31.43;18.47;;;4.70;99.90;;;;;;5013306;28;20257;-60
2022/11/29 01:13:08;;;;;;;28.83;17.60;;;4.70;99.90;;;;;;5022847;28;20211;-58
2022/11/29 01:15:37;;;;;;;33.30;19.37;;;4.70;99.90;;;;;;5012149;28;20211;-60
2022/11/29 01:18:06;;;;;;;32.00;18.83;;;4.70;99.90;;;;;;5032825;28;21033;-59
2022/11/29 01:20:33;;;;;;;31.43;18.37;;;4.70;99.90;;;;;;5005645;28;20212;-59
2022/11/29 01:23:00;;;;;;;35.93;20.13;;;4.70;99.90;;;;;;5020679;28;20203;-59
2022/11/29 01:25:28;;;;;;;31.27;19.00;;;4.60;99.90;;;;;;5014725;28;20212;-60
2022/11/29 01:27:55;;;;;;;36.03;20.83;;;4.70;99.90;;;;;;5019808;28;20243;-59
2022/11/29 01:30:21;;;;;;;33.80;18.87;;;4.60;99.90;;;;;;5017344;28;20203;-60
2022/11/29 01:32:48;;;;;;;32.33;18.47;;;4.70;99.90;;;;;;5011730;28;20200;-59
2022/11/29 01:35:16;;;;;;;30.83;19.83;;;4.60;99.90;;;;;;5004959;28;20211;-59
2022/11/29 01:37:43;;;;;;;36.93;20.97;;;4.60;99.90;;;;;;5020081;28;20216;-59
2022/11/29 01:40:10;;;;;;;30.43;19.57;;;4.70;99.90;;;;;;5015504;28;20199;-59
2022/11/29 01:42:37;;;;;;;39.57;20.97;;;4.60;99.90;;;;;;5019494;28;20207;-59
2022/11/29 01:45:20;;;;;;;33.73;18.70;;;4.60;99.90;;;;;;5004139;28;20969;-59
2022/11/29 01:47:49;;;;;;;33.83;19.87;;;4.60;99.90;;;;;;5012396;28;20234;-59
2022/11/29 01:50:18;;;;;;;36.33;19.90;;;4.60;99.90;;;;;;5005357;28;20600;-59
2022/11/29 01:52:47;;;;;;;39.70;19.57;;;4.60;99.90;;;;;;5008532;28;20307;-59
2022/11/29 01:55:16;;;;;;;31.47;18.40;;;4.60;99.90;;;;;;5005306;28;20681;-59
2022/11/29 01:57:44;;;;;;;35.93;20.40;;;4.60;99.90;;;;;;5009875;28;20232;-59
2022/11/29 02:00:14;;;;;;;35.00;20.77;;;4.60;99.90;;;;;;5023121;28;20208;-60
2022/11/29 02:02:44;;;;;;;37.27;21.37;;;4.60;99.90;;;;;;5008318;28;20211;-59
2022/11/29 02:05:14;;;;;;;39.17;20.53;;;4.60;99.90;;;;;;5004185;28;20216;-59
2022/11/29 02:07:45;;;;;;;38.70;21.07;;;4.60;99.90;;;;;;5020116;28;20215;-59
2022/11/29 02:10:13;;;;;;;34.97;20.47;;;4.60;99.90;;;;;;5023130;28;20207;-59
2022/11/29 02:12:54;;;;;;;38.37;21.50;;;4.60;99.90;;;;;;5012199;28;20204;-59
2022/11/29 02:15:42;;;;;;;33.43;19.57;;;4.60;99.90;;;;;;5020933;28;20192;-59
2022/11/29 02:18:13;;;;;;;37.03;20.43;;;4.50;99.90;;;;;;5014120;28;20711;-59
2022/11/29 02:21:11;;;;;;;37.60;20.90;;;4.50;99.90;;;;;;4997523;28;20674;-60
2022/11/29 02:24:04;;;;;;;32.83;18.77;;;4.50;99.90;;;;;;5011191;28;20200;-59
2022/11/29 02:26:54;;;;;;;35.20;20.67;;;4.50;99.90;;;;;;5020127;28;20573;-59
2022/11/29 02:29:52;;;;;;;40.60;21.43;;;4.50;99.90;;;;;;5020154;28;20200;-59
2022/11/29 02:32:58;;;;;;;39.90;21.20;;;4.50;99.90;;;;;;5014770;28;20208;-59
2022/11/29 02:35:43;;;;;;;40.97;20.73;;;4.50;99.90;;;;;;5013521;28;20192;-59
2022/11/29 02:38:24;;;;;;;38.10;19.33;;;4.50;99.90;;;;;;5004099;28;20204;-58
2022/11/29 02:41:12;;;;;;;37.27;21.00;;;4.50;99.90;;;;;;5014272;28;20202;-59
2022/11/29 02:44:21;;;;;;;35.10;19.97;;;4.50;99.90;;;;;;5011916;28;20239;-58
2022/11/29 02:47:07;;;;;;;41.13;21.50;;;4.40;99.90;;;;;;4925326;29;20219;-58
2022/11/29 02:50:00;;;;;;;39.13;21.10;;;4.40;99.90;;;;;;5008881;28;20219;-59
2022/11/29 02:52:35;;;;;;;40.50;21.53;;;4.50;99.90;;;;;;4994426;28;20215;-59
2022/11/29 02:55:09;;;;;;;42.83;21.57;;;4.50;99.90;;;;;;5019861;28;20532;-58
2022/11/29 02:57:43;;;;;;;42.07;21.07;;;4.40;99.90;;;;;;5017820;28;20542;-58
2022/11/29 03:00:13;;;;;;;38.33;21.37;;;4.40;99.90;;;;;;5020492;28;20267;-59
2022/11/29 03:02:49;;;;;;;42.60;22.17;;;4.40;99.90;;;;;;5012704;28;20200;-59
2022/11/29 03:05:29;;;;;;;40.67;21.43;;;4.40;99.90;;;;;;5016702;28;20841;-59
2022/11/29 03:08:06;;;;;;;35.37;20.33;;;4.40;99.90;;;;;;4995259;28;20232;-59
2022/11/29 03:10:38;;;;;;;43.77;21.37;;;4.40;99.90;;;;;;5015481;28;20223;-59
2022/11/29 03:13:11;;;;;;;38.00;21.50;;;4.40;99.90;;;;;;5016838;28;20200;-59
2022/11/29 03:15:49;;;;;;;34.03;19.77;;;4.40;99.90;;;;;;5022001;28;20271;-58
2022/11/29 03:18:31;;;;;;;44.33;21.37;;;4.40;99.90;;;;;;5011824;28;20199;-59
2022/11/29 03:21:09;;;;;;;35.93;21.27;;;4.40;99.90;;;;;;5019317;28;20196;-59
2022/11/29 03:23:41;;;;;;;40.33;22.20;;;4.40;99.90;;;;;;4994558;28;20222;-59
2022/11/29 03:26:13;;;;;;;35.83;20.90;;;4.40;99.90;;;;;;5023713;28;20309;-59
2022/11/29 03:28:45;;;;;;;44.47;21.93;;;4.40;99.90;;;;;;5013840;28;20204;-59
2022/11/29 03:31:20;;;;;;;34.07;21.10;;;4.40;99.90;;;;;;5025170;28;20220;-59
2022/11/29 03:33:55;;;;;;;35.63;21.87;;;4.40;99.90;;;;;;5014196;28;20199;-59
2022/11/29 03:36:32;;;;;;;40.13;20.73;;;4.40;99.90;;;;;;5020194;28;20302;-59
2022/11/29 03:39:04;;;;;;;34.87;20.13;;;4.40;99.90;;;;;;4996296;28;20219;-59
2022/11/29 03:41:36;;;;;;;38.13;21.17;;;4.40;99.90;;;;;;5014483;28;20212;-59
2022/11/29 03:44:11;;;;;;;41.07;21.10;;;4.50;99.90;;;;;;5015919;28;20262;-59
2022/11/29 03:46:46;;;;;;;38.00;21.53;;;4.50;99.90;;;;;;5020864;28;20229;-59
2022/11/29 03:49:20;;;;;;;39.07;22.13;;;4.50;99.90;;;;;;5025357;28;20209;-60
2022/11/29 03:52:01;;;;;;;39.20;21.10;;;4.40;99.90;;;;;;5014794;28;20250;-59
2022/11/29 03:54:36;;;;;;;40.57;22.37;;;4.50;99.90;;;;;;4994347;28;20209;-57
2022/11/29 03:57:03;;;;;;;37.33;21.37;;;4.50;99.90;;;;;;5023074;28;20941;-59
2022/11/29 03:59:46;;;;;;;41.47;21.60;;;4.40;99.90;;;;;;5024354;28;20207;-59
2022/11/29 04:02:43;;;;;;;39.23;21.03;;;4.50;99.90;;;;;;5022205;28;20207;-59
2022/11/29 04:05:43;;;;;;;40.63;21.17;;;4.40;99.90;;;;;;5012728;28;20208;-59
2022/11/29 04:08:49;;;;;;;39.87;21.40;;;4.50;99.90;;;;;;5024762;28;20196;-58
2022/11/29 04:11:54;;;;;;;44.43;23.20;;;4.40;99.90;;;;;;5023156;28;20687;-58
2022/11/29 04:14:33;;;;;;;38.43;21.13;;;4.40;99.90;;;;;;5016657;28;20203;-59
2022/11/29 04:17:37;;;;;;;40.00;21.50;;;4.40;99.90;;;;;;5016715;28;20301;-59
2022/11/29 04:20:31;;;;;;;46.40;22.90;;;4.50;99.90;;;;;;4998371;28;21002;-58
2022/11/29 04:23:43;;;;;;;41.87;22.07;;;4.40;99.90;;;;;;5012686;28;20203;-58
2022/11/29 04:26:39;;;;;;;41.40;22.13;;;4.50;99.90;;;;;;4970614;28;20240;-59
2022/11/29 04:29:17;;;;;;;37.37;21.83;;;4.50;99.90;;;;;;5020615;28;20199;-58
2022/11/29 04:32:10;;;;;;;41.70;21.63;;;4.50;99.90;;;;;;5003578;28;20204;-59
2022/11/29 04:35:08;;;;;;;41.13;22.43;;;4.50;99.90;;;;;;5015918;28;20895;-59
2022/11/29 04:38:06;;;;;;;41.70;23.07;;;4.50;99.90;;;;;;5010833;28;20214;-59
2022/11/29 04:40:51;;;;;;;39.33;21.80;;;4.40;99.90;;;;;;5002968;28;20227;-59
2022/11/29 04:43:52;;;;;;;39.50;21.53;;;4.50;99.90;;;;;;5021735;28;20215;-58
2022/11/29 04:47:02;;;;;;;42.10;22.43;;;4.40;99.90;;;;;;5016240;28;20341;-59
2022/11/29 04:49:50;;;;;;;45.30;22.73;;;4.50;99.90;;;;;;5019078;28;20204;-59
2022/11/29 04:52:36;;;;;;;47.30;23.77;;;4.40;99.90;;;;;;5013579;28;20219;-59
2022/11/29 04:55:16;;;;;;;43.70;22.53;;;4.50;99.90;;;;;;5019481;28;20204;-59
2022/11/29 04:57:51;;;;;;;41.73;22.07;;;4.40;99.90;;;;;;5004837;28;20977;-58
2022/11/29 05:00:22;;;;;;;39.63;21.50;;;4.50;99.90;;;;;;5022371;28;20210;-59
2022/11/29 05:02:57;;;;;;;43.40;23.70;;;4.40;99.90;;;;;;5014521;28;20192;-59
2022/11/29 05:05:31;;;;;;;40.60;22.30;;;4.40;99.90;;;;;;5020245;28;20660;-60
2022/11/29 05:08:23;;;;;;;43.77;22.40;;;4.40;99.90;;;;;;5007482;28;20619;-58
2022/11/29 05:10:59;;;;;;;40.43;22.73;;;4.40;99.90;;;;;;5019956;28;20246;-59
2022/11/29 05:13:33;;;;;;;37.33;22.37;;;4.40;99.90;;;;;;4998331;28;20206;-59
2022/11/29 05:16:20;;;;;;;43.43;23.00;;;4.40;99.90;;;;;;5022726;28;20196;-59
2022/11/29 05:19:04;;;;;;;44.30;23.73;;;4.40;99.90;;;;;;5015421;28;20199;-59
2022/11/29 05:21:43;;;;;;;39.87;22.63;;;4.40;99.90;;;;;;5017485;28;20231;-59
2022/11/29 05:24:22;;;;;;;39.40;21.57;;;4.40;99.90;;;;;;5016261;28;20204;-59
2022/11/29 05:26:57;;;;;;;42.13;23.60;;;4.30;99.90;;;;;;5011064;28;20226;-59
2022/11/29 05:29:31;;;;;;;45.73;23.80;;;4.30;99.90;;;;;;4997103;28;20207;-59
2022/11/29 05:32:09;;;;;;;41.60;22.33;;;4.40;99.90;;;;;;5017203;28;20751;-59
2022/11/29 05:34:54;;;;;;;42.80;23.00;;;4.30;99.90;;;;;;5004542;28;20196;-58
2022/11/29 05:37:35;;;;;;;42.63;23.23;;;4.30;99.90;;;;;;5016387;28;20250;-60
2022/11/29 05:40:20;;;;;;;45.63;23.00;;;4.40;99.90;;;;;;4998492;28;20274;-59
2022/11/29 05:42:59;;;;;;;43.97;23.50;;;4.30;99.90;;;;;;5003586;28;20220;-60
2022/11/29 05:45:30;;;;;;;43.17;24.67;;;4.30;99.90;;;;;;5010733;28;20203;-59
2022/11/29 05:48:04;;;;;;;47.57;24.07;;;4.30;99.90;;;;;;5007346;28;20220;-59
2022/11/29 05:50:37;;;;;;;41.93;24.30;;;4.30;99.90;;;;;;5013477;28;20207;-58
2022/11/29 05:53:21;;;;;;;44.87;24.33;;;4.30;99.90;;;;;;5012093;28;20310;-58
2022/11/29 05:55:56;;;;;;;42.37;23.40;;;4.30;99.90;;;;;;5008607;28;20841;-58
2022/11/29 05:58:46;;;;;;;44.43;24.53;;;4.30;99.90;;;;;;5017103;28;20675;-59
2022/11/29 06:01:20;;;;;;;44.23;24.33;;;4.30;99.90;;;;;;5004748;28;20223;-58
2022/11/29 06:03:58;;;;;;;46.03;23.83;;;4.30;99.90;;;;;;5012810;28;20568;-59
2022/11/29 06:06:34;;;;;;;43.80;23.83;;;4.30;99.90;;;;;;5017576;28;20289;-58
2022/11/29 06:09:08;;;;;;;47.00;24.33;;;4.30;99.90;;;;;;5014145;28;20820;-59
2022/11/29 06:11:39;;;;;;;45.73;23.70;;;4.20;99.90;;;;;;5013218;28;20640;-59
2022/11/29 06:14:15;;;;;;;44.40;24.57;;;4.20;99.90;;;;;;4995709;28;24443;-57
2022/11/29 06:17:11;;;;;;;44.23;23.73;;;4.20;99.90;;;;;;5011399;28;20224;-59
2022/11/29 06:20:08;;;;;;;39.77;23.40;;;4.30;99.90;;;;;;4980832;28;20687;-58
2022/11/29 06:23:07;;;;;;;42.67;23.67;;;4.30;99.90;;;;;;5020243;28;20191;-59
2022/11/29 06:25:48;;;;;;;43.30;23.30;;;4.20;99.90;;;;;;5017891;28;20631;-58
2022/11/29 06:28:28;;;;;;;46.87;25.17;;;4.20;99.90;;;;;;5002890;28;20212;-58
2022/11/29 06:31:02;;;;;;;41.13;23.20;;;4.20;99.90;;;;;;4986085;28;20302;-58
2022/11/29 06:33:37;;;;;;;45.77;25.63;;;4.30;99.90;;;;;;5016426;28;20205;-59
2022/11/29 06:36:15;;;;;;;45.53;24.63;;;4.20;99.90;;;;;;5004466;28;20979;-59
2022/11/29 06:38:42;;;;;;;46.17;24.97;;;4.30;99.90;;;;;;5008162;28;20199;-58
2022/11/29 06:41:16;;;;;;;40.87;23.70;;;4.20;99.90;;;;;;5001469;28;20207;-58
2022/11/29 06:43:44;;;;;;;45.77;26.37;;;4.30;99.90;;;;;;5012078;28;20196;-58
2022/11/29 06:46:19;;;;;;;45.23;25.33;;;4.20;99.90;;;;;;4996158;28;20222;-58
2022/11/29 06:48:51;;;;;;;43.83;24.60;;;4.30;99.90;;;;;;5009153;28;20215;-58
2022/11/29 06:51:28;;;;;;;48.07;25.13;;;4.20;99.90;;;;;;5016153;28;20280;-59
2022/11/29 06:54:02;;;;;;;48.73;25.07;;;4.20;99.90;;;;;;5006848;28;20203;-56
2022/11/29 06:56:37;;;;;;;44.67;25.37;;;4.20;99.90;;;;;;5017676;28;20219;-58
2022/11/29 06:59:11;;;;;;;46.70;24.03;;;4.30;99.90;;;;;;5011339;28;20204;-59
2022/11/29 07:01:44;;;;;;;45.77;24.40;;;4.30;99.90;;;;;;4999645;28;20204;-58
2022/11/29 07:04:47;;;;;;;47.10;26.30;;;4.30;99.90;;;;;;5003507;28;20273;-59
2022/11/29 07:07:19;;;;;;;47.03;24.63;;;4.30;99.90;;;;;;5007219;28;20235;-60
2022/11/29 07:09:48;;;;;;;46.27;25.70;;;4.30;99.90;;;;;;5013707;28;20196;-58
2022/11/29 07:12:15;;;;;;;47.97;26.20;;;4.30;99.90;;;;;;5007267;28;20287;-59
2022/11/29 07:14:43;;;;;;;46.20;24.77;;;4.30;99.90;;;;;;4998879;28;20216;-59
2022/11/29 07:17:15;;;;;;;49.03;25.47;;;4.30;99.90;;;;;;4994104;28;20240;-59
2022/11/29 07:19:53;;;;;;;48.73;26.50;;;4.30;99.90;;;;;;5008795;28;20203;-59
2022/11/29 07:22:36;;;;;;;46.80;24.87;;;4.30;99.90;;;;;;5012995;28;20196;-59
2022/11/29 07:25:18;;;;;;;46.00;24.67;;;4.30;99.90;;;;;;5012726;28;20208;-59
2022/11/29 07:27:52;;;;;;;41.00;24.47;;;4.30;99.90;;;;;;5011300;28;20704;-60
2022/11/29 07:30:20;;;;;;;43.43;25.17;;;4.20;99.90;;;;;;5015132;28;20681;-59
2022/11/29 07:32:58;;;;;;;45.37;24.97;;;4.20;99.90;;;;;;4997666;28;20696;-59
2022/11/29 07:35:33;;;;;;;44.60;24.27;;;4.30;99.90;;;;;;5022613;28;20712;-59
2022/11/29 07:38:09;;;;;;;45.47;25.07;;;4.30;99.90;;;;;;5001248;28;20207;-59
2022/11/29 07:40:44;;;;;;;49.60;25.77;;;4.20;99.90;;;;;;5013757;28;20196;-59
2022/11/29 07:43:26;;;;;;;45.67;25.57;;;4.30;99.90;;;;;;5013869;28;20207;-60
2022/11/29 07:45:55;;;;;;;48.80;26.00;;;4.30;99.90;;;;;;4997439;28;20204;-59
2022/11/29 07:48:22;;;;;;;44.67;25.17;;;4.30;99.90;;;;;;5005472;28;20226;-59
2022/11/29 07:50:49;;;;;;;47.17;24.70;;;4.30;99.90;;;;;;5012187;28;20196;-58
2022/11/29 07:53:18;;;;;;;49.07;25.70;;;4.30;99.90;;;;;;5006149;28;20227;-59
2022/11/29 07:55:47;;;;;;;43.60;24.73;;;4.30;99.90;;;;;;5009319;28;20287;-58
2022/11/29 07:58:14;;;;;;;45.23;26.30;;;4.30;99.90;;;;;;5017491;28;20884;-59
2022/11/29 08:00:41;;;;;;;47.53;24.97;;;4.30;99.90;;;;;;5011461;28;20258;-59
2022/11/29 08:03:09;;;;;;;46.50;26.47;;;4.30;99.90;;;;;;5007772;28;20192;-59
2022/11/29 08:05:36;;;;;;;45.90;25.17;;;4.30;99.90;;;;;;5000036;28;20227;-59
2022/11/29 08:08:03;;;;;;;45.17;25.17;;;4.30;99.90;;;;;;4995212;28;20236;-59
2022/11/29 08:10:31;;;;;;;42.43;23.50;;;4.30;99.90;;;;;;5017132;28;20211;-58
2022/11/29 08:12:59;;;;;;;45.33;25.63;;;4.40;99.90;;;;;;5002466;28;20829;-59
2022/11/29 08:15:26;;;;;;;45.83;26.20;;;4.30;99.90;;;;;;5008701;28;20197;-58
2022/11/29 08:17:53;;;;;;;41.07;25.13;;;4.30;99.90;;;;;;5006951;28;20220;-59
2022/11/29 08:20:20;;;;;;;47.47;26.03;;;4.30;99.90;;;;;;5002463;28;20566;-59
2022/11/29 08:22:54;;;;;;;46.03;25.03;;;4.40;99.90;;;;;;5011374;28;20849;-59
2022/11/29 08:25:21;;;;;;;46.60;25.70;;;4.40;99.90;;;;;;5004598;28;20287;-59
2022/11/29 08:27:50;;;;;;;46.97;26.50;;;4.40;99.90;;;;;;5012609;28;20601;-58
2022/11/29 08:30:21;;;;;;;42.13;25.33;;;4.40;99.90;;;;;;5004692;28;20236;-59
2022/11/29 08:32:49;;;;;;;44.93;25.10;;;4.40;99.90;;;;;;5001467;28;20560;-59
2022/11/29 08:35:16;;;;;;;43.27;24.57;;;4.40;99.90;;;;;;5014140;28;20274;-59
2022/11/29 08:37:43;;;;;;;41.80;25.37;;;4.40;99.90;;;;;;4998432;28;20661;-59
2022/11/29 08:40:11;;;;;;;42.00;25.33;;;4.50;99.90;;;;;;5004100;28;20208;-58
2022/11/29 08:42:38;;;;;;;46.67;26.97;;;4.50;99.90;;;;;;5006297;28;20226;-60
2022/11/29 08:45:08;;;;;;;44.90;24.97;;;4.50;99.90;;;;;;5019753;28;20184;-58
2022/11/29 08:47:39;;;;;;;41.30;24.23;;;4.50;99.90;;;;;;5009817;28;20220;-59
2022/11/29 08:50:11;;;;;;;43.07;25.13;;;4.50;99.90;;;;;;5011201;28;21105;-59
2022/11/29 08:55:28;;;;;;;47.17;25.40;;;4.50;99.90;;;;;;5011024;28;20234;-59
2022/11/29 08:58:01;;;;;;;47.40;25.13;;;4.50;99.90;;;;;;5017550;28;20729;-59
2022/11/29 09:00:29;;;;;;;37.67;23.43;;;4.50;99.90;;;;;;5014742;28;20196;-59
2022/11/29 09:03:58;;;;;;;41.63;24.67;;;4.50;99.90;;;;;;5004779;28;20266;-59
2022/11/29 09:05:43;;;;;;;49.63;25.60;;;4.50;99.90;;;;;;5014894;28;20577;-59
2022/11/29 09:08:10;;;;;;;46.37;26.23;;;4.50;99.90;;;;;;4999314;28;20298;-59
2022/11/29 09:10:38;;;;;;;41.57;24.60;;;4.50;99.90;;;;;;5017682;28;20214;-57
2022/11/29 09:13:06;;;;;;;46.53;24.60;;;4.60;99.90;;;;;;5004123;28;20216;-60
2022/11/29 09:15:34;;;;;;;41.10;25.10;;;4.60;99.90;;;;;;5022134;28;20204;-58
2022/11/29 09:18:00;;;;;;;45.40;26.37;;;4.60;99.90;;;;;;5009846;28;20325;-58
2022/11/29 09:20:28;;;;;;;37.87;23.57;;;4.60;99.90;;;;;;5010070;28;20286;-58
2022/11/29 09:22:55;;;;;;;45.20;24.33;;;4.50;99.90;;;;;;4991702;28;20208;-59
2022/11/29 09:25:21;;;;;;;42.73;25.50;;;4.50;99.90;;;;;;5016147;28;20609;-58
2022/11/29 09:27:48;;;;;;;44.10;25.27;;;4.60;99.90;;;;;;5001892;28;20242;-59
2022/11/29 09:30:15;;;;;;;44.03;24.83;;;4.60;99.90;;;;;;5014778;28;20207;-59
2022/11/29 09:32:45;;;;;;;44.30;26.87;;;4.60;99.90;;;;;;5012255;28;20204;-58
2022/11/29 09:35:11;;;;;;;42.53;24.50;;;4.60;99.90;;;;;;5013237;28;21063;-59
2022/11/29 09:37:42;;;;;;;45.77;25.53;;;4.60;99.90;;;;;;5009127;28;20216;-60
2022/11/29 09:40:18;;;;;;;44.20;24.70;;;4.60;99.90;;;;;;5014217;28;20302;-59
2022/11/29 09:42:54;;;;;;;45.77;25.93;;;4.60;99.90;;;;;;5012603;28;20200;-59
2022/11/29 09:45:30;;;;;;;40.47;24.07;;;4.60;99.90;;;;;;5020066;28;20207;-59
2022/11/29 09:48:21;;;;;;;40.63;24.67;;;4.60;99.90;;;;;;5011672;28;20234;-58
2022/11/29 09:50:52;;;;;;;43.73;24.57;;;4.70;99.90;;;;;;5010478;28;20200;-59
2022/11/29 09:53:34;;;;;;;43.67;25.43;;;4.70;99.90;;;;;;5000723;28;20204;-58
2022/11/29 09:56:11;;;;;;;47.87;27.00;;;4.70;99.90;;;;;;5017646;28;20214;-59
2022/11/29 09:58:45;;;;;;;39.67;24.67;;;4.70;99.90;;;;;;5000848;28;20275;-60
2022/11/29 10:01:21;;;;;;;49.37;26.43;;;4.70;99.90;;;;;;5002463;28;20215;-59
2022/11/29 10:03:53;;;;;;;45.30;25.93;;;4.70;99.90;;;;;;5010332;28;20207;-59
2022/11/29 10:06:24;;;;;;;42.43;25.33;;;4.70;99.90;;;;;;5008145;28;20224;-59
2022/11/29 10:08:59;;;;;;;41.37;25.40;;;4.70;99.90;;;;;;5016000;28;20715;-59
2022/11/29 10:11:30;;;;;;;40.83;25.87;;;4.80;99.90;;;;;;4996952;28;20208;-58
2022/11/29 10:14:01;;;;;;;43.23;25.87;;;4.80;99.90;;;;;;5010195;28;20204;-59
2022/11/29 10:16:39;;;;;;;43.13;25.40;;;4.80;99.90;;;;;;5015722;28;20227;-59
2022/11/29 10:19:15;;;;;;;47.50;26.57;;;4.80;99.90;;;;;;5009681;28;20211;-59
2022/11/29 10:21:47;;;;;;;47.70;27.00;;;4.80;99.90;;;;;;5001993;28;20663;-59
2022/11/29 10:24:19;;;;;;;45.03;25.17;;;4.80;99.90;;;;;;5017394;28;20203;-58
2022/11/29 10:26:45;;;;;;;43.53;24.63;;;4.80;99.90;;;;;;4997543;28;20756;-59
2022/11/29 10:29:14;;;;;;;45.63;25.37;;;4.90;99.90;;;;;;5008562;28;20228;-59
2022/11/29 10:31:45;;;;;;;45.40;24.13;;;4.90;99.90;;;;;;5010084;28;20250;-59
2022/11/29 10:34:15;;;;;;;46.70;26.70;;;4.90;99.90;;;;;;5001129;28;20207;-59
2022/11/29 10:36:46;;;;;;;41.90;25.13;;;4.90;99.90;;;;;;5020574;28;20216;-59
2022/11/29 10:39:19;;;;;;;42.47;24.00;;;4.90;99.90;;;;;;5004847;28;20677;-58
2022/11/29 10:41:48;;;;;;;46.20;25.97;;;4.90;99.90;;;;;;4994691;28;20216;-59
2022/11/29 10:44:15;;;;;;;44.40;26.07;;;4.90;99.90;;;;;;5006858;28;20192;-60
2022/11/29 10:46:42;;;;;;;47.43;26.13;;;4.90;99.90;;;;;;5022070;28;20226;-54
2022/11/29 10:49:14;;;;;;;47.83;26.17;;;4.90;99.90;;;;;;5003355;28;20224;-59
2022/11/29 10:51:41;;;;;;;43.33;26.03;;;4.90;99.90;;;;;;5015484;28;20196;-59
2022/11/29 10:54:24;;;;;;;41.03;24.67;;;4.90;99.90;;;;;;4999378;28;20258;-59
2022/11/29 10:56:52;;;;;;;41.60;25.40;;;5.00;99.90;;;;;;4987005;28;20235;-59
2022/11/29 10:59:23;;;;;;;44.47;24.77;;;5.00;99.90;;;;;;5002726;28;20675;-59
2022/11/29 11:01:51;;;;;;;45.13;25.93;;;5.00;99.90;;;;;;5010471;28;20205;-59
2022/11/29 11:04:27;;;;;;;43.43;25.07;;;5.00;99.90;;;;;;4997942;28;20334;-59
2022/11/29 11:06:56;;;;;;;41.47;25.17;;;5.00;99.90;;;;;;5009444;28;20228;-58
2022/11/29 11:09:30;;;;;;;43.97;24.53;;;5.00;99.90;;;;;;5004754;28;20223;-58
2022/11/29 11:11:59;;;;;;;41.00;23.70;;;5.10;99.90;;;;;;5000045;28;20211;-60
2022/11/29 11:14:28;;;;;;;43.17;25.67;;;5.10;99.90;;;;;;5000350;28;20200;-59
2022/11/29 11:16:55;;;;;;;42.53;25.50;;;5.10;99.90;;;;;;5012651;28;20232;-59
2022/11/29 11:19:28;;;;;;;43.63;26.57;;;5.10;99.90;;;;;;5012988;28;20664;-59
2022/11/29 11:21:55;;;;;;;46.63;27.83;;;5.10;99.90;;;;;;5014032;28;20235;-59
2022/11/29 11:24:25;;;;;;;45.87;25.90;;;5.10;99.90;;;;;;5013477;28;20211;-59
2022/11/29 11:26:51;;;;;;;43.23;26.33;;;5.20;99.90;;;;;;4988880;28;20227;-59
2022/11/29 11:29:21;;;;;;;45.70;26.30;;;5.20;99.90;;;;;;5016640;28;20223;-59
2022/11/29 11:31:54;;;;;;;44.27;26.57;;;5.20;99.90;;;;;;5006808;28;20207;-59
2022/11/29 11:34:32;;;;;;;45.63;27.77;;;5.20;99.90;;;;;;5014240;28;20200;-58
2022/11/29 11:37:22;;;;;;;51.50;29.93;;;5.20;99.90;;;;;;5010231;28;20224;-59
2022/11/29 11:39:50;;;;;;;51.40;28.47;;;5.20;99.90;;;;;;5005882;28;20950;-58
2022/11/29 11:42:41;;;;;;;49.27;29.07;;;5.20;99.90;;;;;;4995160;28;20254;-59
2022/11/29 11:45:37;;;;;;;48.57;26.90;;;5.20;99.90;;;;;;5021146;28;20204;-59
2022/11/29 11:48:12;;;;;;;44.43;25.93;;;5.20;99.90;;;;;;4975668;28;20359;-59
2022/11/29 11:50:44;;;;;;;46.20;26.83;;;5.30;99.90;;;;;;5010218;28;20283;-60
2022/11/29 11:53:21;;;;;;;44.87;26.80;;;5.30;99.90;;;;;;5012995;28;20208;-60
2022/11/29 11:55:56;;;;;;;49.90;26.80;;;5.20;99.90;;;;;;5008314;28;20198;-60
2022/11/29 11:58:23;;;;;;;41.73;25.43;;;5.20;99.90;;;;;;4986207;28;20211;-59
2022/11/29 12:00:52;;;;;;;50.33;28.30;;;5.30;99.90;;;;;;5005631;28;20656;-59
2022/11/29 12:03:28;;;;;;;50.00;27.53;;;5.30;99.90;;;;;;5010174;28;20200;-59
2022/11/29 12:06:01;;;;;;;52.80;29.00;;;5.30;99.90;;;;;;5017424;28;20200;-59
2022/11/29 12:08:29;;;;;;;49.83;27.73;;;5.30;99.90;;;;;;5012118;28;20251;-59
2022/11/29 12:11:00;;;;;;;47.23;26.13;;;5.30;99.90;;;;;;5005295;28;20258;-59
2022/11/29 12:13:31;;;;;;;47.50;26.50;;;5.30;99.90;;;;;;5002483;28;20215;-60
2022/11/29 12:16:03;;;;;;;47.23;26.43;;;5.30;99.90;;;;;;5014894;28;20207;-59
2022/11/29 12:18:37;;;;;;;48.57;26.87;;;5.30;99.90;;;;;;5002671;28;20188;-59
2022/11/29 12:21:13;;;;;;;49.30;27.90;;;5.30;99.90;;;;;;5014349;28;20215;-59
2022/11/29 12:23:44;;;;;;;52.17;28.87;;;5.30;99.90;;;;;;5004158;28;20317;-60
2022/11/29 12:26:17;;;;;;;47.43;28.03;;;5.30;99.90;;;;;;5008812;28;20590;-59
2022/11/29 12:28:45;;;;;;;49.73;27.10;;;5.30;99.90;;;;;;4994017;28;20311;-60
2022/11/29 12:31:25;;;;;;;50.57;27.63;;;5.30;99.90;;;;;;5014961;28;20197;-58
2022/11/29 12:34:02;;;;;;;49.13;27.53;;;5.30;99.90;;;;;;5007567;28;20195;-59
2022/11/29 12:36:37;;;;;;;51.93;27.23;;;5.30;99.90;;;;;;5013345;28;20293;-59
2022/11/29 12:39:24;;;;;;;52.23;28.47;;;5.30;99.90;;;;;;4996846;28;20199;-59
2022/11/29 12:41:56;;;;;;;53.00;28.83;;;5.30;99.90;;;;;;5006622;28;20220;-59
2022/11/29 12:44:38;;;;;;;48.13;26.73;;;5.30;99.90;;;;;;4991472;28;20212;-59
2022/11/29 12:47:13;;;;;;;48.30;27.47;;;5.30;99.90;;;;;;5007482;28;20212;-60
2022/11/29 12:49:48;;;;;;;48.60;26.73;;;5.30;99.90;;;;;;5006607;28;20299;-59
2022/11/29 12:52:24;;;;;;;49.77;27.30;;;5.30;99.90;;;;;;5014327;28;20200;-59
2022/11/29 12:55:00;;;;;;;48.67;27.63;;;5.20;99.90;;;;;;5007843;28;20200;-60
2022/11/29 12:57:35;;;;;;;51.63;28.43;;;5.20;99.90;;;;;;5010725;28;20255;-59
2022/11/29 13:00:08;;;;;;;50.33;27.77;;;5.20;99.90;;;;;;4991397;28;20218;-45
2022/11/29 13:02:48;;;;;;;51.30;29.03;;;5.20;99.90;;;;;;5011026;28;20290;-46
2022/11/29 13:05:29;;;;;;;51.73;27.77;;;5.20;99.90;;;;;;5008016;28;20323;-47
2022/11/29 13:08:14;;;;;;;48.43;28.80;;;5.20;99.90;;;;;;4999579;28;20869;-60
2022/11/29 13:10:58;;;;;;;49.63;28.97;;;5.30;99.90;;;;;;5015780;28;20204;-59
2022/11/29 13:13:37;;;;;;;55.23;29.40;;;5.20;99.90;;;;;;5010345;28;20442;-60
2022/11/29 13:16:10;;;;;;;55.30;29.20;;;5.20;99.90;;;;;;4997606;28;20299;-60
2022/11/29 13:18:47;;;;;;;49.13;28.20;;;5.20;99.90;;;;;;5021043;28;20202;-60